createdAt,value
2019-01-03T00:03:20.740Z,2.80
2019-01-03T00:05:51.762Z,3.10
2019-01-03T00:08:22.791Z,3.40
2019-01-03T00:10:53.841Z,3.50
2019-01-03T00:13:27.826Z,3.50
2019-01-03T00:16:17.190Z,3.50
2019-01-03T00:19:04.495Z,3.50
2019-01-03T00:21:50.990Z,3.40
2019-01-03T00:24:31.150Z,3.40
2019-01-03T00:27:17.263Z,3.20
2019-01-03T00:30:01.979Z,3.20
2019-01-03T00:32:33.076Z,3.20
2019-01-03T00:35:10.333Z,3.20
2019-01-03T00:37:47.054Z,3.30
2019-01-03T00:40:18.100Z,3.40
2019-01-03T00:46:04.810Z,3.50
2019-01-03T00:51:45.041Z,3.70
2019-01-03T00:54:34.581Z,3.90
2019-01-03T00:57:22.220Z,3.90
2019-01-03T01:02:40.102Z,4.00
2019-01-03T01:05:27.642Z,4.00
2019-01-03T01:08:15.189Z,4.00
2019-01-03T01:10:58.447Z,4.00
2019-01-03T01:13:46.020Z,4.00
2019-01-03T01:16:34.964Z,4.00
2019-01-03T01:19:06.092Z,3.90
2019-01-03T01:21:53.252Z,3.80
2019-01-03T01:24:33.312Z,3.80
2019-01-03T01:27:05.916Z,3.80
2019-01-03T01:29:42.995Z,3.80
2019-01-03T01:32:30.828Z,3.70
2019-01-03T01:35:13.953Z,3.60
2019-01-03T01:37:45.059Z,3.60
2019-01-03T01:40:28.347Z,3.60
2019-01-03T01:43:11.658Z,3.60
2019-01-03T01:46:00.802Z,3.60
2019-01-03T01:48:31.834Z,3.70
2019-01-03T01:51:08.665Z,3.70
2019-01-03T01:53:46.145Z,3.70
2019-01-03T01:56:33.807Z,3.60
2019-01-03T01:59:21.123Z,3.70
2019-01-03T02:02:04.012Z,3.70
2019-01-03T02:04:35.067Z,3.80
2019-01-03T02:07:06.244Z,3.70
2019-01-03T02:09:53.570Z,3.70
2019-01-03T02:12:30.384Z,3.60
2019-01-03T02:15:07.230Z,3.60
2019-01-03T02:17:41.328Z,3.50
2019-01-03T02:20:18.500Z,3.40
2019-01-03T02:23:06.029Z,3.40
2019-01-03T02:25:38.205Z,3.40
2019-01-03T02:28:25.729Z,3.30
2019-01-03T02:31:13.273Z,3.20
2019-01-03T02:33:56.172Z,3.20
2019-01-03T02:36:33.489Z,3.20
2019-01-03T02:39:13.659Z,3.20
2019-01-03T02:41:45.078Z,3.20
2019-01-03T02:44:31.356Z,3.30
2019-01-03T02:47:20.361Z,3.40
2019-01-03T02:49:54.079Z,3.60
2019-01-03T02:52:25.343Z,3.80
2019-01-03T02:55:14.127Z,3.90
2019-01-03T02:57:51.058Z,4.00
2019-01-03T03:00:27.949Z,4.10
2019-01-03T03:03:14.946Z,4.10
2019-01-03T03:05:55.110Z,4.20
2019-01-03T03:08:26.145Z,4.30
2019-01-03T03:11:12.386Z,4.40
2019-01-03T03:13:59.939Z,4.40
2019-01-03T03:16:33.811Z,4.40
2019-01-03T03:19:21.482Z,4.50
2019-01-03T03:22:08.567Z,4.60
2019-01-03T03:24:42.320Z,4.60
2019-01-03T03:27:13.461Z,4.70
2019-01-03T03:33:07.575Z,4.70
2019-01-03T03:35:47.860Z,4.70
2019-01-03T03:38:18.922Z,4.70
2019-01-03T03:40:52.963Z,4.70
2019-01-03T03:43:41.878Z,4.60
2019-01-03T03:46:22.452Z,4.50
2019-01-03T03:48:59.703Z,4.40
2019-01-03T03:51:47.401Z,4.20
2019-01-03T03:54:24.275Z,4.30
2019-01-03T03:57:11.295Z,4.40
2019-01-03T03:59:45.069Z,4.50
2019-01-03T04:02:19.120Z,4.50
2019-01-03T04:04:56.291Z,4.50
2019-01-03T04:07:36.563Z,4.40
2019-01-03T04:10:25.022Z,4.40
2019-01-03T04:12:56.014Z,4.30
2019-01-03T04:15:39.086Z,4.30
2019-01-03T04:18:26.374Z,4.30
2019-01-03T04:20:57.410Z,4.30
2019-01-03T04:23:44.752Z,4.30
2019-01-03T04:26:24.953Z,4.20
2019-01-03T04:29:01.807Z,4.20
2019-01-03T04:31:48.793Z,4.00
2019-01-03T04:34:36.478Z,3.90
2019-01-03T04:37:24.085Z,3.80
2019-01-03T04:40:07.239Z,3.80
2019-01-03T04:42:54.587Z,3.80
2019-01-03T04:45:31.884Z,3.80
2019-01-03T04:48:03.213Z,3.90
2019-01-03T04:50:50.259Z,3.80
2019-01-03T04:53:30.474Z,3.90
2019-01-03T04:56:01.571Z,3.90
2019-01-03T05:02:02.820Z,3.90
2019-01-03T05:04:39.955Z,3.90
2019-01-03T05:07:14.018Z,4.00
2019-01-03T05:09:47.791Z,4.10
2019-01-03T05:12:19.215Z,4.20
2019-01-03T05:15:02.798Z,4.20
2019-01-03T05:17:49.884Z,4.20
2019-01-03T05:20:20.978Z,4.10
2019-01-03T05:23:08.514Z,4.10
2019-01-03T05:25:42.594Z,4.10
2019-01-03T05:28:13.769Z,4.00
2019-01-03T05:30:48.056Z,4.00
2019-01-03T05:33:35.813Z,4.00
2019-01-03T05:36:06.886Z,3.90
2019-01-03T05:38:38.012Z,3.80
2019-01-03T05:41:25.726Z,3.70
2019-01-03T05:44:12.215Z,3.50
2019-01-03T05:46:43.288Z,3.30
2019-01-03T05:49:29.111Z,3.20
2019-01-03T05:52:00.110Z,3.20
2019-01-03T05:54:31.123Z,3.10
2019-01-03T05:57:17.191Z,3.10
2019-01-03T05:59:57.199Z,2.90
2019-01-03T06:02:31.038Z,2.90
2019-01-03T06:05:17.540Z,2.80
2019-01-03T06:07:48.564Z,2.70
2019-01-03T06:10:22.631Z,2.60
2019-01-03T06:13:05.739Z,2.60
2019-01-03T06:15:42.883Z,2.70
2019-01-03T06:18:13.916Z,2.70
2019-01-03T06:20:48.250Z,2.80
2019-01-03T06:23:31.663Z,2.80
2019-01-03T06:26:11.701Z,2.90
2019-01-03T06:28:45.510Z,2.90
2019-01-03T06:31:16.610Z,2.90
2019-01-03T06:33:47.611Z,3.10
2019-01-03T06:36:36.276Z,3.10
2019-01-03T06:39:24.697Z,3.10
2019-01-03T06:41:55.895Z,3.20
2019-01-03T06:44:27.474Z,3.10
2019-01-03T06:47:16.738Z,3.20
2019-01-03T06:49:47.925Z,3.30
2019-01-03T06:52:21.590Z,3.30
2019-01-03T06:54:52.574Z,3.30
2019-01-03T06:57:38.671Z,3.40
2019-01-03T07:00:18.594Z,3.50
2019-01-03T07:03:01.839Z,3.50
2019-01-03T07:05:32.850Z,3.60
2019-01-03T07:08:19.208Z,3.70
2019-01-03T07:10:53.191Z,3.80
2019-01-03T07:13:24.374Z,3.80
2019-01-03T07:16:11.825Z,3.90
2019-01-03T07:18:59.575Z,3.90
2019-01-03T07:21:42.835Z,3.80
2019-01-03T07:24:14.615Z,3.80
2019-01-03T07:26:45.688Z,3.70
2019-01-03T07:29:19.364Z,3.60
2019-01-03T07:31:50.422Z,3.60
2019-01-03T07:34:21.516Z,3.60
2019-01-03T07:36:55.520Z,3.50
2019-01-03T07:39:42.054Z,3.50
2019-01-03T07:42:15.708Z,3.40
2019-01-03T07:45:03.297Z,3.40
2019-01-03T07:47:34.306Z,3.40
2019-01-03T07:50:09.358Z,3.40
2019-01-03T07:52:52.711Z,3.30
2019-01-03T07:55:52.466Z,3.20
2019-01-03T07:58:40.437Z,3.20
2019-01-03T08:01:17.503Z,3.20
2019-01-03T08:04:03.934Z,3.20
2019-01-03T08:06:34.990Z,3.10
2019-01-03T08:09:26.254Z,3.20
2019-01-03T08:12:13.778Z,3.20
2019-01-03T08:14:56.974Z,3.30
2019-01-03T08:17:28.180Z,3.50
2019-01-03T08:19:59.210Z,3.60
2019-01-03T08:22:42.773Z,3.70
2019-01-03T08:25:30.588Z,3.80
2019-01-03T08:28:19.528Z,3.90
2019-01-03T08:31:08.638Z,3.90
2019-01-03T08:33:54.936Z,3.90
2019-01-03T08:36:28.958Z,3.80
2019-01-03T08:39:03.357Z,3.80
2019-01-03T08:41:50.645Z,3.80
2019-01-03T08:44:21.755Z,3.80
2019-01-03T08:46:58.837Z,3.90
2019-01-03T08:49:38.991Z,4.10
2019-01-03T08:52:26.195Z,4.30
2019-01-03T08:54:58.710Z,4.60
2019-01-03T08:57:29.750Z,4.80
2019-01-03T09:00:12.979Z,4.80
2019-01-03T09:02:58.764Z,4.80
2019-01-03T09:05:42.973Z,4.80
2019-01-03T09:08:14.072Z,4.80
2019-01-03T09:10:48.013Z,5.00
2019-01-03T09:13:19.202Z,4.90
2019-01-03T09:18:39.094Z,4.70
2019-01-03T09:21:16.357Z,4.90
2019-01-03T09:23:56.522Z,5.20
2019-01-03T09:26:30.671Z,5.40
2019-01-03T09:29:02.004Z,5.70
2019-01-03T09:31:33.626Z,5.80
2019-01-03T09:34:20.098Z,5.90
2019-01-03T09:36:54.815Z,6.10
2019-01-03T09:39:42.783Z,6.20
2019-01-03T09:42:30.219Z,6.40
2019-01-03T09:45:01.193Z,6.40
2019-01-03T09:47:30.567Z,6.40
2019-01-03T09:50:00.480Z,6.70
2019-01-03T09:52:29.868Z,7.10
2019-01-03T09:54:59.354Z,7.70
2019-01-03T09:57:28.794Z,7.70
2019-01-03T09:59:58.279Z,7.60
2019-01-03T10:02:27.663Z,7.20
2019-01-03T10:04:57.205Z,7.00
2019-01-03T10:07:26.590Z,7.30
2019-01-03T10:09:57.855Z,8.10
2019-01-03T10:12:27.382Z,8.30
2019-01-03T10:14:57.927Z,7.90
2019-01-03T10:17:27.785Z,7.30
2019-01-03T10:19:57.578Z,6.90
2019-01-03T10:22:26.963Z,6.70
2019-01-03T10:24:56.438Z,6.60
2019-01-03T10:27:27.459Z,6.70
2019-01-03T10:29:56.916Z,6.80
2019-01-03T10:32:26.359Z,7.00
2019-01-03T10:34:55.810Z,7.10
2019-01-03T10:37:25.427Z,7.10
2019-01-03T10:39:56.610Z,7.00
2019-01-03T10:42:26.266Z,6.90
2019-01-03T10:44:55.824Z,6.80
2019-01-03T10:47:25.296Z,6.80
2019-01-03T10:49:56.591Z,6.80
2019-01-03T10:52:26.011Z,6.80
2019-01-03T10:54:55.391Z,6.80
2019-01-03T10:57:25.099Z,6.80
2019-01-03T10:59:54.484Z,6.70
2019-01-03T11:02:23.925Z,6.70
2019-01-03T11:04:53.429Z,6.90
2019-01-03T11:07:23.617Z,7.00
2019-01-03T11:09:53.074Z,6.90
2019-01-03T11:12:22.565Z,6.70
2019-01-03T11:14:52.068Z,6.60
2019-01-03T11:17:21.432Z,6.50
2019-01-03T11:19:50.950Z,6.50
2019-01-03T11:22:20.303Z,6.60
2019-01-03T11:24:49.693Z,6.60
2019-01-03T11:27:19.163Z,6.60
2019-01-03T11:29:48.528Z,6.70
2019-01-03T11:32:17.945Z,6.70
2019-01-03T11:34:47.470Z,6.80
2019-01-03T11:37:16.898Z,6.60
2019-01-03T11:39:46.282Z,6.70
2019-01-03T11:42:15.795Z,6.70
2019-01-03T11:44:45.204Z,6.80
2019-01-03T11:47:14.735Z,6.90
2019-01-03T11:49:45.707Z,6.90
2019-01-03T11:52:15.528Z,6.80
2019-01-03T11:54:58.345Z,7.10
2019-01-03T11:57:27.748Z,7.30
2019-01-03T11:59:57.248Z,7.10
2019-01-03T12:02:28.279Z,7.00
2019-01-03T12:04:57.736Z,6.70
2019-01-03T12:07:27.131Z,6.50
2019-01-03T12:09:56.600Z,6.40
2019-01-03T12:12:26.003Z,6.40
2019-01-03T12:14:55.407Z,6.40
2019-01-03T12:17:24.917Z,6.40
2019-01-03T12:19:54.294Z,6.30
2019-01-03T12:22:23.959Z,6.30
2019-01-03T12:24:53.416Z,6.30
2019-01-03T12:27:22.834Z,6.30
2019-01-03T12:29:52.225Z,6.40
2019-01-03T12:32:21.688Z,6.60
2019-01-03T12:34:51.145Z,6.70
2019-01-03T12:37:20.758Z,6.90
2019-01-03T12:39:50.382Z,7.00
2019-01-03T12:42:19.723Z,7.00
2019-01-03T12:44:49.170Z,7.10
2019-01-03T12:47:18.512Z,7.10
2019-01-03T12:49:48.007Z,7.00
2019-01-03T12:52:17.615Z,6.90
2019-01-03T12:54:47.167Z,6.90
2019-01-03T12:57:16.523Z,6.90
2019-01-03T12:59:46.040Z,6.90
2019-01-03T13:02:16.931Z,6.80
2019-01-03T13:04:46.434Z,6.60
2019-01-03T13:07:16.014Z,6.50
2019-01-03T13:09:45.482Z,6.50
2019-01-03T13:12:28.018Z,6.60
2019-01-03T13:14:57.482Z,6.60
2019-01-03T13:17:26.935Z,6.70
2019-01-03T13:19:56.664Z,6.80
2019-01-03T13:22:26.135Z,6.80
2019-01-03T13:24:56.019Z,7.00
2019-01-03T13:27:25.395Z,7.00
2019-01-03T13:29:54.804Z,7.20
2019-01-03T13:32:24.364Z,7.20
2019-01-03T13:34:53.885Z,7.20
2019-01-03T13:37:23.355Z,7.20
2019-01-03T13:39:52.818Z,7.20
2019-01-03T13:42:22.359Z,7.10
2019-01-03T13:44:51.766Z,7.10
2019-01-03T13:47:21.187Z,7.20
2019-01-03T13:49:50.885Z,7.20
2019-01-03T13:52:20.290Z,7.50
2019-01-03T13:54:49.880Z,7.70
2019-01-03T13:57:19.300Z,7.70
2019-01-03T13:59:50.278Z,7.70
2019-01-03T14:02:19.762Z,7.60
2019-01-03T14:04:49.289Z,7.50
2019-01-03T14:07:19.631Z,7.30
2019-01-03T14:09:50.671Z,7.10
2019-01-03T14:12:20.187Z,7.00
2019-01-03T14:14:49.781Z,6.90
2019-01-03T14:17:19.245Z,6.90
2019-01-03T14:19:48.783Z,6.80
2019-01-03T14:22:19.163Z,6.70
2019-01-03T14:24:48.777Z,6.70
2019-01-03T14:27:18.236Z,6.70
2019-01-03T14:29:47.626Z,6.70
2019-01-03T14:32:17.320Z,6.60
2019-01-03T14:34:46.787Z,6.60
2019-01-03T14:37:16.251Z,6.60
2019-01-03T14:39:45.604Z,6.50
2019-01-03T14:42:15.104Z,6.50
2019-01-03T14:44:44.522Z,6.50
2019-01-03T14:47:13.985Z,6.40
2019-01-03T14:49:43.403Z,6.40
2019-01-03T14:52:12.795Z,6.40
2019-01-03T14:54:42.140Z,6.40
2019-01-03T14:57:13.056Z,6.30
2019-01-03T14:59:42.407Z,6.30
2019-01-03T15:02:12.225Z,6.20
2019-01-03T15:04:41.731Z,6.20
2019-01-03T15:07:11.311Z,6.20
2019-01-03T15:09:40.665Z,6.20
2019-01-03T15:12:11.654Z,6.20
2019-01-03T15:14:41.082Z,6.20
2019-01-03T15:17:10.475Z,6.20
2019-01-03T15:19:39.894Z,6.20
2019-01-03T15:22:09.749Z,6.10
2019-01-03T15:24:39.234Z,6.10
2019-01-03T15:27:08.612Z,6.10
2019-01-03T15:29:38.057Z,6.10
2019-01-03T15:32:07.558Z,6.00
2019-01-03T15:34:36.994Z,5.90
2019-01-03T15:37:06.367Z,5.80
2019-01-03T15:39:35.747Z,5.70
2019-01-03T15:42:05.530Z,5.60
2019-01-03T15:44:34.989Z,5.50
2019-01-03T15:47:04.445Z,5.40
2019-01-03T15:49:34.203Z,5.30
2019-01-03T15:52:03.771Z,5.10
2019-01-03T15:54:33.455Z,5.00
2019-01-03T15:57:02.968Z,4.90
2019-01-03T15:59:32.702Z,4.90
2019-01-03T16:02:02.343Z,4.70
2019-01-03T16:04:31.745Z,4.60
2019-01-03T16:07:01.278Z,4.60
2019-01-03T16:09:30.833Z,4.50
2019-01-03T16:12:00.356Z,4.50
2019-01-03T16:14:29.945Z,4.40
2019-01-03T16:16:59.412Z,4.30
2019-01-03T16:19:29.016Z,4.30
2019-01-03T16:21:58.488Z,4.30
2019-01-03T16:24:28.402Z,4.30
2019-01-03T16:26:57.803Z,4.20
2019-01-03T16:29:28.777Z,4.20
2019-01-03T16:31:58.235Z,4.10
2019-01-03T16:34:27.651Z,4.10
2019-01-03T16:36:57.111Z,4.10
2019-01-03T16:39:26.571Z,4.10
2019-01-03T16:41:56.032Z,4.00
2019-01-03T16:44:25.662Z,3.90
2019-01-03T16:46:55.280Z,3.90
2019-01-03T16:49:24.743Z,3.80
2019-01-03T16:51:54.238Z,3.70
2019-01-03T16:54:23.682Z,3.60
2019-01-03T16:56:53.032Z,3.70
2019-01-03T16:59:22.458Z,3.60
2019-01-03T17:01:51.808Z,3.50
2019-01-03T17:04:21.199Z,3.40
2019-01-03T17:06:50.718Z,3.20
2019-01-03T17:09:20.290Z,3.10
2019-01-03T17:11:49.866Z,3.00
2019-01-03T17:14:19.350Z,2.90
2019-01-03T17:16:48.882Z,2.70
2019-01-03T17:19:18.344Z,2.60
2019-01-03T17:21:48.321Z,2.60
2019-01-03T17:24:17.986Z,2.70
2019-01-03T17:26:47.435Z,2.80
2019-01-03T17:29:17.562Z,2.90
2019-01-03T17:31:46.951Z,3.00
2019-01-03T17:34:16.343Z,3.10
2019-01-03T17:36:45.723Z,3.10
2019-01-03T17:39:15.112Z,3.10
2019-01-03T17:41:46.173Z,3.00
2019-01-03T17:44:15.569Z,2.90
2019-01-03T17:46:45.127Z,2.90
2019-01-03T17:49:14.507Z,2.80
2019-01-03T17:51:44.083Z,2.70
2019-01-03T17:54:13.503Z,2.70
2019-01-03T17:56:43.564Z,2.60
2019-01-03T17:59:13.217Z,2.60
2019-01-03T18:01:42.655Z,2.60
2019-01-03T18:04:12.056Z,2.50
2019-01-03T18:06:41.635Z,2.50
2019-01-03T18:09:11.227Z,2.50
2019-01-03T18:11:40.630Z,2.40
2019-01-03T18:14:10.114Z,2.50
2019-01-03T18:16:39.592Z,2.50
2019-01-03T18:19:09.107Z,2.60
2019-01-03T18:21:40.198Z,2.50
2019-01-03T18:24:09.666Z,2.50
2019-01-03T18:26:39.114Z,2.40
2019-01-03T18:29:08.554Z,2.40
2019-01-03T18:31:38.050Z,2.40
2019-01-03T18:34:07.703Z,2.30
2019-01-03T18:36:37.332Z,2.30
2019-01-03T18:39:06.676Z,2.30
2019-01-03T18:41:36.651Z,2.20
2019-01-03T18:44:06.471Z,2.10
2019-01-03T18:46:36.106Z,2.10
2019-01-03T18:49:05.465Z,2.10
2019-01-03T18:51:36.457Z,2.20
2019-01-03T18:54:05.997Z,2.10
2019-01-03T18:56:35.474Z,2.10
2019-01-03T18:59:05.010Z,2.10
2019-01-03T19:01:34.471Z,2.00
2019-01-03T19:04:03.939Z,1.90
2019-01-03T19:06:33.796Z,2.00
2019-01-03T19:09:04.119Z,2.00
2019-01-03T19:11:33.591Z,2.00
2019-01-03T19:14:02.944Z,2.00
2019-01-03T19:16:32.348Z,2.00
2019-01-03T19:19:01.886Z,2.00
2019-01-03T19:21:31.457Z,2.00
2019-01-03T19:24:00.808Z,2.10
2019-01-03T19:26:30.192Z,2.10
2019-01-03T19:28:59.621Z,2.10
2019-01-03T19:31:29.351Z,2.00
2019-01-03T19:33:58.736Z,2.10
2019-01-03T19:36:28.614Z,2.00
2019-01-03T19:38:58.027Z,2.00
2019-01-03T19:41:27.419Z,1.80
2019-01-03T19:43:56.850Z,1.70
2019-01-03T19:46:26.412Z,1.70
2019-01-03T19:48:55.799Z,1.70
2019-01-03T19:51:25.181Z,1.70
2019-01-03T19:53:54.539Z,1.70
2019-01-03T19:56:24.075Z,1.70
2019-01-03T19:58:53.419Z,1.80
2019-01-03T20:01:22.880Z,1.80
2019-01-03T20:03:52.257Z,1.90
2019-01-03T20:06:21.734Z,2.00
2019-01-03T20:08:51.167Z,2.00
2019-01-03T20:11:20.971Z,2.00
2019-01-03T20:13:50.485Z,2.00
2019-01-03T20:16:20.154Z,1.90
2019-01-03T20:18:50.229Z,1.90
2019-01-03T20:21:19.623Z,1.90
2019-01-03T20:23:49.115Z,1.90
2019-01-03T20:26:21.257Z,1.90
2019-01-03T20:28:51.219Z,1.90
2019-01-03T20:31:20.598Z,1.90
2019-01-03T20:33:51.672Z,1.90
2019-01-03T20:36:21.119Z,1.80
2019-01-03T20:38:50.517Z,1.70
2019-01-03T20:41:20.909Z,1.60
2019-01-03T20:43:51.367Z,1.50
2019-01-03T20:46:20.959Z,1.40
2019-01-03T20:49:03.642Z,1.40
2019-01-03T20:51:46.116Z,1.50
2019-01-03T20:54:15.647Z,1.70
2019-01-03T20:56:45.324Z,1.80
2019-01-03T20:59:14.712Z,1.90
2019-01-03T21:01:45.728Z,2.10
2019-01-03T21:04:16.712Z,2.20
2019-01-03T21:06:46.424Z,2.20
2019-01-03T21:09:15.883Z,2.20
2019-01-03T21:11:45.336Z,2.10
2019-01-03T21:14:14.912Z,2.10
2019-01-03T21:16:44.431Z,2.00
2019-01-03T21:19:13.993Z,2.00
2019-01-03T21:21:43.407Z,2.00
2019-01-03T21:24:12.862Z,2.00
2019-01-03T21:26:42.431Z,2.10
2019-01-03T21:29:11.990Z,2.10
2019-01-03T21:31:41.483Z,2.10
2019-01-03T21:34:10.951Z,2.10
2019-01-03T21:36:40.359Z,2.20
2019-01-03T21:39:10.007Z,2.20
2019-01-03T21:41:39.580Z,2.30
2019-01-03T21:44:09.051Z,2.40
2019-01-03T21:46:38.396Z,2.40
2019-01-03T21:49:07.867Z,2.40
2019-01-03T21:51:37.290Z,2.40
2019-01-03T21:54:06.667Z,2.50
2019-01-03T21:56:36.243Z,2.50
2019-01-03T21:59:05.817Z,2.40
2019-01-03T22:01:35.256Z,2.40
2019-01-03T22:04:04.651Z,2.40
2019-01-03T22:06:34.007Z,2.30
2019-01-03T22:09:04.428Z,2.20
2019-01-03T22:11:33.970Z,2.20
2019-01-03T22:14:03.460Z,2.20
2019-01-03T22:16:32.816Z,2.10
2019-01-03T22:19:02.201Z,2.10
2019-01-03T22:21:31.579Z,2.00
2019-01-03T22:24:00.963Z,2.00
2019-01-03T22:26:30.367Z,2.00
2019-01-03T22:29:00.387Z,1.90
2019-01-03T22:31:30.612Z,1.90
2019-01-03T22:34:00.066Z,2.00
2019-01-03T22:36:29.427Z,2.10
2019-01-03T22:38:59.005Z,2.10
2019-01-03T22:41:28.427Z,2.10
2019-01-03T22:43:57.955Z,2.10
2019-01-03T22:46:27.451Z,2.20
2019-01-03T22:48:56.908Z,2.30
2019-01-03T22:51:26.257Z,2.30
2019-01-03T22:53:57.151Z,2.40
2019-01-03T22:56:26.551Z,2.40
2019-01-03T22:58:55.922Z,2.40
2019-01-03T23:01:25.689Z,2.50
2019-01-03T23:03:55.198Z,2.50
2019-01-03T23:06:24.710Z,2.60
2019-01-03T23:08:54.127Z,2.60
2019-01-03T23:11:25.105Z,2.60
2019-01-03T23:13:54.494Z,2.60
2019-01-03T23:16:23.970Z,2.70
2019-01-03T23:19:06.662Z,2.70
2019-01-03T23:21:36.499Z,2.80
2019-01-03T23:24:06.591Z,2.90
2019-01-03T23:26:37.526Z,2.90
2019-01-03T23:29:06.989Z,2.90
2019-01-03T23:31:36.461Z,3.00
2019-01-03T23:34:05.920Z,3.00
2019-01-03T23:36:35.515Z,3.00
2019-01-03T23:39:06.127Z,3.10
2019-01-03T23:41:35.475Z,3.10
2019-01-03T23:44:04.999Z,3.20
2019-01-03T23:46:34.515Z,3.20
2019-01-03T23:49:04.043Z,3.30
2019-01-03T23:51:33.528Z,3.30
2019-01-03T23:54:03.112Z,3.30
2019-01-03T23:56:32.564Z,3.40
2019-01-03T23:59:02.089Z,3.30
